首页
METAR-TAF:

METAR-TAF

机场 :

Fairford, 英格兰

纬度: 51-41N, 经度: 001-47W, 海拔: 87米

当前天气观测

该预报发布于1小时和0分钟前的08:56 UTC
风速8节,风向东转东北
温度 19°C
湿度 52%
气压 1023 hPa
能见度10公里或以上
天空无云

METAR: EGVA 010856Z AUTO 07008KT 9999 CLR 19/09 A3022 RMK AO2 SLP235 T01880090 58002 $

时间: 10:56 (09:56 UTC)


TAF: 丢失

超过4000个机场的气象观测和天气预报(METAR&TAF报告)。

可查询的气象台以黄色和红色小点在地图上表示。

将鼠标移到小点上方,可查看气象台名称。

然后点击查看天气观测和预报。

如需切换地图:点击带黑十字的绿色按钮放大地图;点击带横线的绿色按钮缩小地图;或者点击绿色箭头查看邻近地区的地图。


METAR-TAF: